Time;durP1;ratioP1;P1;durP2;ratioP2;P2;SDS_P1;SDS_P2;PMS_P1;PMS_P2;Temp;Humidity;BMP_temperature;BMP_pressure;BME280_temperature;BME280_humidity;BME280_pressure;Samples;Min_cycle;Max_cycle;Signal;HPM_P1;HPM_P2
2023/03/12 00:01:26;;;;;;;;;;;-1.00;99.90;;;;;;5092098;28;19925;-78
2023/03/12 00:03:53;;;;;;;;;;;-1.00;99.90;;;;;;5076871;28;20011;-78
2023/03/12 00:06:19;;;;;;;;;;;-1.00;99.90;;;;;;5091405;28;19932;-78
2023/03/12 00:08:44;;;;;;;;;;;-1.10;99.90;;;;;;5062811;28;19988;-79
2023/03/12 00:11:11;;;;;;;;;;;-1.10;99.90;;;;;;5087320;28;19978;-78
2023/03/12 00:13:37;;;;;;;;;;;-1.10;99.90;;;;;;5088318;28;19925;-78
2023/03/12 00:16:04;;;;;;;;;;;-1.20;99.90;;;;;;5087300;28;19986;-78
2023/03/12 00:18:29;;;;;;;;;;;-1.10;99.90;;;;;;5061808;28;19932;-79
2023/03/12 00:20:55;;;;;;;;;;;-1.10;99.90;;;;;;5059674;28;19925;-78
2023/03/12 00:23:21;;;;;;;;;;;-1.10;99.90;;;;;;5090700;28;20321;-78
2023/03/12 00:25:46;;;;;;;;;;;-1.10;99.90;;;;;;5093602;28;20350;-78
2023/03/12 00:28:12;;;;;;;;;;;-1.10;99.90;;;;;;5091194;28;19925;-78
2023/03/12 00:30:39;;;;;;;;;;;-1.10;99.90;;;;;;5091270;28;19940;-78
2023/03/12 00:33:05;;;;;;;;;;;-1.10;99.90;;;;;;5089699;28;19929;-78
2023/03/12 00:35:31;;;;;;;;;;;-1.00;99.90;;;;;;5091876;28;20008;-78
2023/03/12 00:37:57;;;;;;;;;;;-1.00;99.90;;;;;;5090872;28;19947;-78
2023/03/12 00:40:22;;;;;;;;;;;-0.90;99.90;;;;;;5059437;28;19928;-78
2023/03/12 00:42:48;;;;;;;;;;;-0.90;99.90;;;;;;5042892;28;19925;-78
2023/03/12 00:45:13;;;;;;;;;;;-0.80;99.90;;;;;;5056573;28;20492;-78
2023/03/12 00:47:39;;;;;;;;;;;-0.70;99.90;;;;;;5090759;28;19925;-78
2023/03/12 00:50:05;;;;;;;;;;;-0.60;99.90;;;;;;5090428;28;19924;-78
2023/03/12 00:52:30;;;;;;;;;;;-0.60;99.90;;;;;;5045676;28;19972;-79
2023/03/12 00:54:57;;;;;;;;;;;-0.50;99.90;;;;;;5092778;28;19936;-78
2023/03/12 00:57:23;;;;;;;;;;;-0.50;99.90;;;;;;5092491;28;20011;-78
2023/03/12 00:59:49;;;;;;;;;;;-0.40;99.90;;;;;;5098200;28;20011;-78
2023/03/12 01:02:14;;;;;;;;;;;-0.40;99.90;;;;;;5045243;28;20486;-78
2023/03/12 01:04:40;;;;;;;;;;;-0.40;99.90;;;;;;5096792;28;20266;-79
2023/03/12 01:07:05;;;;;;;;;;;-0.40;99.90;;;;;;5097544;28;19925;-78
2023/03/12 01:09:31;;;;;;;;;;;-0.20;99.90;;;;;;5074373;28;19928;-79
2023/03/12 01:11:56;;;;;;;;;;;-0.30;99.90;;;;;;5096287;28;19929;-78
2023/03/12 01:14:23;;;;;;;;;;;-0.20;99.90;;;;;;5095165;28;20340;-79
2023/03/12 01:16:48;;;;;;;;;;;-0.20;99.90;;;;;;5096256;28;19925;-78
2023/03/12 01:19:14;;;;;;;;;;;-0.10;99.90;;;;;;5094854;28;19929;-78
2023/03/12 01:21:40;;;;;;;;;;;0.00;99.90;;;;;;5046660;28;19956;-78
2023/03/12 01:24:05;;;;;;;;;;;0.00;99.90;;;;;;5094187;28;19924;-78
2023/03/12 01:26:31;;;;;;;;;;;0.10;99.90;;;;;;5096020;28;19972;-78
2023/03/12 01:28:57;;;;;;;;;;;0.20;99.90;;;;;;5095123;28;19928;-77
2023/03/12 01:31:22;;;;;;;;;;;0.20;99.90;;;;;;5096995;28;19956;-78
2023/03/12 01:33:51;;;;;;;;;;;0.20;99.90;;;;;;5098567;28;19929;-78
2023/03/12 01:36:19;;;;;;;;;;;0.20;99.90;;;;;;5079054;28;19924;-78
2023/03/12 01:38:44;;;;;;;;;;;0.30;99.90;;;;;;5068200;28;19966;-78
2023/03/12 01:41:10;;;;;;;;;;;0.30;99.90;;;;;;5059208;28;19928;-78
2023/03/12 01:43:37;;;;;;;;;;;0.30;99.90;;;;;;5066476;28;19960;-78
2023/03/12 01:46:22;;;;;;;;;;;0.30;99.90;;;;;;5047728;28;19955;-78
2023/03/12 01:49:02;;;;;;;;;;;0.20;99.90;;;;;;5078318;28;19927;-78
2023/03/12 01:51:30;;;;;;;;;;;0.30;99.90;;;;;;5050624;28;19924;-79
2023/03/12 01:53:58;;;;;;;;;;;0.20;99.90;;;;;;5066117;28;19935;-78
2023/03/12 01:56:25;;;;;;;;;;;0.20;99.90;;;;;;5064827;28;19924;-79
2023/03/12 01:58:52;;;;;;;;;;;0.20;99.90;;;;;;5058769;28;19928;-78
2023/03/12 02:01:18;;;;;;;;;;;0.20;99.90;;;;;;5073053;28;19935;-79
2023/03/12 02:03:46;;;;;;;;;;;0.30;99.90;;;;;;5064313;28;19959;-78
2023/03/12 02:06:13;;;;;;;;;;;0.30;99.90;;;;;;5046536;28;19925;-78
2023/03/12 02:08:41;;;;;;;;;;;0.40;99.90;;;;;;5064498;28;20015;-78
2023/03/12 02:11:06;;;;;;;;;;;0.30;99.90;;;;;;5071666;28;20383;-78
2023/03/12 02:13:32;;;;;;;;;;;0.30;99.90;;;;;;5068390;28;19925;-78
2023/03/12 02:15:58;;;;;;;;;;;0.30;99.90;;;;;;5098602;28;19928;-78
2023/03/12 02:18:24;;;;;;;;;;;0.30;99.90;;;;;;5050553;28;19963;-78
2023/03/12 02:21:08;;;;;;;;;;;0.40;99.90;;;;;;5048619;28;19925;-79
2023/03/12 02:23:46;;;;;;;;;;;0.30;99.90;;;;;;5054595;28;19951;-78
2023/03/12 02:26:12;;;;;;;;;;;0.30;99.90;;;;;;5093621;28;19932;-79
2023/03/12 02:28:42;;;;;;;;;;;0.30;99.90;;;;;;5067374;28;20313;-78
2023/03/12 02:31:11;;;;;;;;;;;0.30;99.90;;;;;;5065872;28;19951;-79
2023/03/12 02:33:36;;;;;;;;;;;0.30;99.90;;;;;;5062853;28;19931;-78
2023/03/12 02:36:02;;;;;;;;;;;0.40;99.90;;;;;;5093563;28;19928;-78
2023/03/12 02:38:33;;;;;;;;;;;0.40;99.90;;;;;;5092121;28;19933;-78
2023/03/12 02:41:01;;;;;;;;;;;0.40;99.90;;;;;;5067318;28;19935;-79
2023/03/12 02:43:26;;;;;;;;;;;0.50;99.90;;;;;;5094151;28;19971;-79
2023/03/12 02:45:53;;;;;;;;;;;0.50;99.90;;;;;;5043695;28;19960;-78
2023/03/12 02:48:18;;;;;;;;;;;0.50;99.90;;;;;;5090609;28;19978;-78
2023/03/12 02:50:44;;;;;;;;;;;0.50;99.90;;;;;;5077155;28;19964;-78
2023/03/12 02:53:09;;;;;;;;;;;0.60;99.90;;;;;;5091061;28;19924;-78
2023/03/12 02:55:35;;;;;;;;;;;0.60;99.90;;;;;;5061597;28;20737;-78
2023/03/12 02:58:00;;;;;;;;;;;0.60;99.90;;;;;;5093219;28;20004;-79
2023/03/12 03:00:26;;;;;;;;;;;0.60;99.90;;;;;;5061970;28;19932;-79
2023/03/12 03:02:52;;;;;;;;;;;0.60;99.90;;;;;;5059969;28;19932;-79
2023/03/12 03:05:19;;;;;;;;;;;0.60;99.90;;;;;;5094477;28;19928;-79
2023/03/12 03:07:44;;;;;;;;;;;0.60;99.90;;;;;;5060181;28;19925;-79
2023/03/12 03:10:10;;;;;;;;;;;0.60;99.90;;;;;;5059195;28;20331;-79
2023/03/12 03:12:36;;;;;;;;;;;0.60;99.90;;;;;;5061095;28;20366;-79
2023/03/12 03:15:02;;;;;;;;;;;0.60;99.90;;;;;;5091404;28;20390;-79
2023/03/12 03:17:28;;;;;;;;;;;0.60;99.90;;;;;;5061178;28;19980;-79
2023/03/12 03:19:54;;;;;;;;;;;0.60;99.90;;;;;;5075255;28;19924;-79
2023/03/12 03:22:20;;;;;;;;;;;0.60;99.90;;;;;;5094790;28;19925;-79
2023/03/12 03:24:45;;;;;;;;;;;0.70;99.90;;;;;;5060081;28;19924;-79
2023/03/12 03:27:11;;;;;;;;;;;0.70;99.90;;;;;;5076453;28;19939;-79
2023/03/12 03:29:37;;;;;;;;;;;0.60;99.90;;;;;;5090881;28;19940;-79
2023/03/12 03:32:03;;;;;;;;;;;0.70;99.90;;;;;;5073469;28;19990;-79
2023/03/12 03:34:28;;;;;;;;;;;0.70;99.90;;;;;;5060404;28;19936;-79
2023/03/12 03:36:54;;;;;;;;;;;0.70;99.90;;;;;;5091452;28;19925;-79
2023/03/12 03:39:19;;;;;;;;;;;0.70;99.90;;;;;;5075960;28;19972;-79
2023/03/12 03:41:46;;;;;;;;;;;0.80;99.90;;;;;;5060497;28;20352;-79
2023/03/12 03:44:12;;;;;;;;;;;0.90;99.90;;;;;;5092917;28;19929;-79
2023/03/12 03:46:38;;;;;;;;;;;0.90;99.90;;;;;;5092768;28;19939;-79
2023/03/12 03:49:03;;;;;;;;;;;0.90;99.90;;;;;;5090268;28;19925;-79
2023/03/12 03:51:29;;;;;;;;;;;1.00;99.90;;;;;;5090342;28;19931;-79
2023/03/12 03:53:55;;;;;;;;;;;0.90;99.90;;;;;;5060719;28;19946;-78
2023/03/12 03:56:21;;;;;;;;;;;1.00;99.90;;;;;;5076556;28;19933;-79
2023/03/12 03:58:46;;;;;;;;;;;0.90;99.90;;;;;;5090433;28;20007;-78
2023/03/12 04:01:13;;;;;;;;;;;1.00;99.90;;;;;;5042583;28;19929;-79
2023/03/12 04:03:38;;;;;;;;;;;1.00;99.90;;;;;;5059059;28;19925;-78
2023/03/12 04:06:05;;;;;;;;;;;1.00;99.90;;;;;;5091166;28;19992;-78
2023/03/12 04:08:31;;;;;;;;;;;1.00;99.90;;;;;;5059884;28;19980;-79
2023/03/12 04:10:57;;;;;;;;;;;1.00;99.90;;;;;;5089603;28;19950;-79
2023/03/12 04:13:22;;;;;;;;;;;1.00;99.90;;;;;;5059074;28;19988;-79
2023/03/12 04:15:49;;;;;;;;;;;1.00;99.90;;;;;;5091783;28;19928;-78
2023/03/12 04:18:15;;;;;;;;;;;1.00;99.90;;;;;;5092554;28;19955;-78
2023/03/12 04:20:41;;;;;;;;;;;1.00;99.90;;;;;;5092361;28;19933;-78
2023/03/12 04:23:07;;;;;;;;;;;1.10;99.90;;;;;;5071911;28;19935;-79
2023/03/12 04:25:32;;;;;;;;;;;1.10;99.90;;;;;;5094661;28;19925;-79
2023/03/12 04:27:58;;;;;;;;;;;1.20;99.90;;;;;;5062670;28;19932;-79
2023/03/12 04:30:23;;;;;;;;;;;1.20;99.90;;;;;;5070585;28;19928;-79
2023/03/12 04:32:49;;;;;;;;;;;1.20;99.90;;;;;;5088350;28;20189;-78
2023/03/12 04:35:14;;;;;;;;;;;1.20;99.90;;;;;;5058385;28;19925;-78
2023/03/12 04:37:40;;;;;;;;;;;1.30;99.90;;;;;;5088566;28;19924;-78
2023/03/12 04:40:06;;;;;;;;;;;1.20;99.90;;;;;;5090154;28;19978;-79
2023/03/12 04:42:35;;;;;;;;;;;1.30;99.90;;;;;;5073952;28;20388;-78
2023/03/12 04:45:02;;;;;;;;;;;1.30;99.90;;;;;;5088972;28;19933;-79
2023/03/12 04:47:29;;;;;;;;;;;1.30;99.90;;;;;;5092997;28;19979;-79
2023/03/12 04:49:55;;;;;;;;;;;1.30;99.90;;;;;;5060924;28;19975;-78
2023/03/12 04:52:20;;;;;;;;;;;1.30;99.90;;;;;;5041794;28;19932;-79
2023/03/12 04:54:46;;;;;;;;;;;1.30;99.90;;;;;;5088028;28;19925;-79
2023/03/12 04:57:11;;;;;;;;;;;1.30;99.90;;;;;;5070507;28;19935;-79
2023/03/12 04:59:37;;;;;;;;;;;1.40;99.90;;;;;;5046961;28;19975;-79
2023/03/12 05:02:02;;;;;;;;;;;1.40;99.90;;;;;;5091153;28;20035;-78
2023/03/12 05:04:28;;;;;;;;;;;1.40;99.90;;;;;;5092544;28;20007;-78
2023/03/12 05:06:53;;;;;;;;;;;1.40;99.90;;;;;;5040655;28;19984;-78
2023/03/12 05:09:19;;;;;;;;;;;1.30;99.90;;;;;;5035372;28;19925;-79
2023/03/12 05:11:45;;;;;;;;;;;1.40;99.90;;;;;;5091564;28;20019;-78
2023/03/12 05:14:11;;;;;;;;;;;1.40;99.90;;;;;;5084133;28;19929;-79
2023/03/12 05:16:36;;;;;;;;;;;1.40;99.90;;;;;;5093751;28;19924;-80
2023/03/12 05:19:03;;;;;;;;;;;1.40;99.90;;;;;;5090740;28;20356;-80
2023/03/12 05:21:28;;;;;;;;;;;1.40;99.90;;;;;;5076259;28;19925;-80
2023/03/12 05:23:54;;;;;;;;;;;1.40;99.90;;;;;;5091601;28;19924;-79
2023/03/12 05:26:21;;;;;;;;;;;1.40;99.90;;;;;;5095057;28;19925;-79
2023/03/12 05:28:46;;;;;;;;;;;1.40;99.90;;;;;;5057242;28;19967;-79
2023/03/12 05:31:12;;;;;;;;;;;1.40;99.90;;;;;;5073615;28;19932;-79
2023/03/12 05:33:38;;;;;;;;;;;1.40;99.90;;;;;;5061478;28;19932;-79
2023/03/12 05:36:04;;;;;;;;;;;1.40;99.90;;;;;;5057200;28;19952;-79
2023/03/12 05:38:29;;;;;;;;;;;1.50;99.90;;;;;;5077828;28;19928;-79
2023/03/12 05:40:57;;;;;;;;;;;1.40;99.90;;;;;;5092473;28;19925;-79
2023/03/12 05:43:22;;;;;;;;;;;1.40;99.90;;;;;;5063546;28;19924;-79
2023/03/12 05:45:48;;;;;;;;;;;1.40;99.90;;;;;;5062205;28;19992;-79
2023/03/12 05:48:14;;;;;;;;;;;1.50;99.90;;;;;;5061820;28;19950;-79
2023/03/12 05:50:39;;;;;;;;;;;1.50;99.90;;;;;;5095021;28;20058;-78
2023/03/12 05:53:05;;;;;;;;;;;1.50;99.90;;;;;;5063203;28;19925;-79
2023/03/12 05:55:33;;;;;;;;;;;1.50;99.90;;;;;;5045076;28;19982;-79
2023/03/12 05:57:58;;;;;;;;;;;1.50;99.90;;;;;;5093619;28;19925;-79
2023/03/12 06:00:24;;;;;;;;;;;1.60;99.90;;;;;;5062892;28;19970;-79
2023/03/12 06:02:50;;;;;;;;;;;1.50;99.90;;;;;;5046620;28;19929;-79
2023/03/12 06:05:15;;;;;;;;;;;1.50;99.90;;;;;;5063096;28;19984;-79
2023/03/12 06:07:41;;;;;;;;;;;1.50;99.90;;;;;;5094253;28;19940;-79
2023/03/12 06:10:07;;;;;;;;;;;1.60;99.90;;;;;;5061063;28;20335;-79
2023/03/12 06:12:32;;;;;;;;;;;1.60;99.90;;;;;;5094468;28;19924;-79
2023/03/12 06:14:58;;;;;;;;;;;1.50;99.90;;;;;;5086497;28;19936;-79
2023/03/12 06:17:23;;;;;;;;;;;1.50;99.90;;;;;;5060089;28;19976;-79
2023/03/12 06:19:50;;;;;;;;;;;1.60;99.90;;;;;;5091712;28;19925;-79
2023/03/12 06:22:15;;;;;;;;;;;1.60;99.90;;;;;;5094631;28;19956;-79
2023/03/12 06:24:41;;;;;;;;;;;1.60;99.90;;;;;;5045082;28;19929;-79
2023/03/12 06:27:07;;;;;;;;;;;1.60;99.90;;;;;;5059166;28;20008;-79
2023/03/12 06:29:32;;;;;;;;;;;1.60;99.90;;;;;;5059368;28;19931;-79
2023/03/12 06:31:58;;;;;;;;;;;1.60;99.90;;;;;;5094678;28;19970;-79
2023/03/12 06:34:23;;;;;;;;;;;1.70;99.90;;;;;;5061010;28;19951;-79
2023/03/12 06:36:49;;;;;;;;;;;1.70;99.90;;;;;;5091356;28;19947;-79
2023/03/12 06:39:14;;;;;;;;;;;1.70;99.90;;;;;;5094724;28;19924;-78
2023/03/12 06:41:40;;;;;;;;;;;1.70;99.90;;;;;;5092565;28;19925;-79
2023/03/12 06:44:06;;;;;;;;;;;1.70;99.90;;;;;;5061537;28;19924;-78
2023/03/12 06:46:31;;;;;;;;;;;1.70;99.90;;;;;;5060756;28;19925;-78
2023/03/12 06:48:57;;;;;;;;;;;1.80;99.90;;;;;;5091882;28;19929;-79
2023/03/12 06:51:23;;;;;;;;;;;1.80;99.90;;;;;;5044358;28;19925;-79
2023/03/12 06:53:48;;;;;;;;;;;1.80;99.90;;;;;;5087530;28;19925;-79
2023/03/12 06:56:14;;;;;;;;;;;1.80;99.90;;;;;;5044095;28;19971;-79
2023/03/12 06:58:40;;;;;;;;;;;1.80;99.90;;;;;;5075386;28;19947;-78
2023/03/12 07:01:05;;;;;;;;;;;1.80;99.90;;;;;;5094613;28;20365;-79
2023/03/12 07:03:31;;;;;;;;;;;1.80;99.90;;;;;;5064059;28;19947;-79
2023/03/12 07:05:57;;;;;;;;;;;1.80;99.90;;;;;;5092982;28;19924;-79
2023/03/12 07:08:23;;;;;;;;;;;1.70;99.90;;;;;;5093628;28;19925;-79
2023/03/12 07:10:49;;;;;;;;;;;1.60;99.90;;;;;;5040636;28;19951;-78
2023/03/12 07:13:15;;;;;;;;;;;1.60;99.90;;;;;;5059691;28;19925;-78
2023/03/12 07:15:40;;;;;;;;;;;1.50;99.90;;;;;;5060134;28;19925;-78
2023/03/12 07:18:07;;;;;;;;;;;1.60;99.90;;;;;;5093329;28;20526;-78
2023/03/12 07:20:37;;;;;;;;;;;1.60;99.90;;;;;;5059895;28;19988;-78
2023/03/12 07:23:03;;;;;;;;;;;1.50;99.90;;;;;;5089053;28;20439;-78
2023/03/12 07:25:28;;;;;;;;;;;1.50;99.90;;;;;;5093418;28;19929;-78
2023/03/12 07:27:54;;;;;;;;;;;1.50;99.90;;;;;;5075136;28;19932;-78
2023/03/12 07:30:20;;;;;;;;;;;1.50;99.90;;;;;;5093289;28;20000;-78
2023/03/12 07:32:45;;;;;;;;;;;1.50;99.90;;;;;;5092263;28;20465;-79
2023/03/12 07:35:11;;;;;;;;;;;1.50;99.90;;;;;;5093503;28;19929;-79
2023/03/12 07:37:37;;;;;;;;;;;1.50;99.90;;;;;;5088319;28;20513;-79
2023/03/12 07:40:06;;;;;;;;;;;1.40;99.90;;;;;;5091544;28;19929;-79
2023/03/12 07:42:32;;;;;;;;;;;1.30;99.90;;;;;;5076607;28;19935;-79
2023/03/12 07:44:57;;;;;;;;;;;1.30;99.90;;;;;;5091130;28;19928;-79
2023/03/12 07:47:23;;;;;;;;;;;1.30;99.90;;;;;;5029665;28;19932;-79
2023/03/12 07:49:48;;;;;;;;;;;1.30;99.90;;;;;;5058461;28;19947;-79
2023/03/12 07:52:14;;;;;;;;;;;1.20;99.90;;;;;;5042134;28;19928;-79
2023/03/12 07:54:40;;;;;;;;;;;1.20;99.90;;;;;;5059540;28;19931;-78
2023/03/12 07:57:05;;;;;;;;;;;1.30;99.90;;;;;;5058561;28;19991;-79
2023/03/12 07:59:31;;;;;;;;;;;1.20;99.90;;;;;;5090146;28;19933;-79
2023/03/12 08:01:57;;;;;;;;;;;1.20;99.90;;;;;;5057121;28;19969;-81
2023/03/12 08:04:22;;;;;;;;;;;1.20;99.90;;;;;;5062938;28;19925;-82
2023/03/12 08:06:48;;;;;;;;;;;1.30;99.90;;;;;;5063738;28;19980;-82
2023/03/12 08:09:13;;;;;;;;;;;1.30;99.90;;;;;;5092452;28;19940;-82
2023/03/12 08:11:39;;;;;;;;;;;1.30;99.90;;;;;;5059073;28;19979;-81
2023/03/12 08:14:05;;;;;;;;;;;1.40;99.90;;;;;;5069860;28;19929;-81
2023/03/12 08:16:30;;;;;;;;;;;1.40;99.90;;;;;;5092170;28;19924;-81
2023/03/12 08:18:56;;;;;;;;;;;1.50;99.90;;;;;;5057699;28;19936;-82
2023/03/12 08:21:21;;;;;;;;;;;1.40;99.90;;;;;;5059723;28;19929;-82
2023/03/12 08:23:47;;;;;;;;;;;1.50;99.90;;;;;;5090854;28;19925;-82
2023/03/12 08:26:13;;;;;;;;;;;1.50;99.90;;;;;;5092989;28;19939;-81
2023/03/12 08:28:38;;;;;;;;;;;1.60;99.90;;;;;;5090374;28;19925;-81
2023/03/12 08:31:04;;;;;;;;;;;1.60;99.90;;;;;;5079561;28;19973;-82
2023/03/12 08:33:30;;;;;;;;;;;1.60;99.90;;;;;;5064198;28;20018;-82
2023/03/12 08:35:55;;;;;;;;;;;1.50;99.90;;;;;;5057926;28;19929;-82
2023/03/12 08:38:21;;;;;;;;;;;1.70;99.90;;;;;;5064758;28;19933;-83
2023/03/12 08:40:53;;;;;;;;;;;1.70;99.90;;;;;;5077387;28;19928;-83
2023/03/12 08:43:19;;;;;;;;;;;1.70;99.90;;;;;;5064224;28;19947;-83
2023/03/12 08:45:44;;;;;;;;;;;1.70;99.90;;;;;;5048178;28;19924;-83
2023/03/12 08:48:10;;;;;;;;;;;1.80;99.90;;;;;;5065866;28;20044;-81
2023/03/12 08:50:35;;;;;;;;;;;1.80;99.90;;;;;;5061316;28;19925;-82
2023/03/12 08:53:01;;;;;;;;;;;1.80;99.90;;;;;;5092611;28;19928;-83
2023/03/12 08:55:28;;;;;;;;;;;1.80;99.90;;;;;;5093292;28;19990;-82
2023/03/12 08:57:54;;;;;;;;;;;1.90;99.90;;;;;;5075678;28;20039;-82
2023/03/12 09:00:20;;;;;;;;;;;1.90;99.90;;;;;;5060767;28;20421;-82
2023/03/12 09:02:46;;;;;;;;;;;1.90;99.90;;;;;;5058422;28;20008;-82
2023/03/12 09:05:12;;;;;;;;;;;1.90;99.90;;;;;;5059297;28;19935;-83
2023/03/12 09:07:37;;;;;;;;;;;2.00;99.90;;;;;;5092363;28;19925;-83
2023/03/12 09:10:03;;;;;;;;;;;1.90;99.90;;;;;;5057824;28;19929;-83
2023/03/12 09:12:29;;;;;;;;;;;1.90;99.90;;;;;;5062000;28;19924;-82
2023/03/12 09:14:54;;;;;;;;;;;1.90;99.90;;;;;;5062970;28;19929;-82
2023/03/12 09:17:20;;;;;;;;;;;2.00;99.90;;;;;;5082433;28;19928;-83
2023/03/12 09:19:46;;;;;;;;;;;2.00;99.90;;;;;;5063190;28;20263;-83
2023/03/12 09:22:11;;;;;;;;;;;2.00;99.90;;;;;;5071395;28;19932;-82
2023/03/12 09:24:37;;;;;;;;;;;2.00;99.90;;;;;;5071296;28;19935;-83
2023/03/12 09:27:03;;;;;;;;;;;2.00;99.90;;;;;;5095276;28;19924;-82
2023/03/12 09:29:29;;;;;;;;;;;2.10;99.90;;;;;;5065354;28;19966;-82
2023/03/12 09:31:54;;;;;;;;;;;2.10;99.90;;;;;;5080950;28;19946;-82
2023/03/12 09:34:20;;;;;;;;;;;2.20;99.90;;;;;;5070998;28;19926;-82
2023/03/12 09:36:45;;;;;;;;;;;2.20;99.90;;;;;;5079801;28;19935;-83
2023/03/12 09:39:11;;;;;;;;;;;2.20;99.90;;;;;;5048612;28;20391;-83
2023/03/12 09:41:38;;;;;;;;;;;2.20;99.90;;;;;;5068730;28;19936;-82
2023/03/12 09:44:10;;;;;;;;;;;2.30;99.90;;;;;;5067821;28;19925;-83
2023/03/12 09:46:45;;;;;;;;;;;2.30;99.90;;;;;;5065833;28;19950;-83
2023/03/12 09:49:31;;;;;;;;;;;2.30;99.90;;;;;;5060491;28;19937;-82
2023/03/12 09:51:57;;;;;;;;;;;2.30;99.90;;;;;;5091626;28;19993;-82
2023/03/12 09:54:43;;;;;;;;;;;2.30;99.90;;;;;;5083942;28;20001;-82
2023/03/12 09:57:11;;;;;;;;;;;2.40;99.90;;;;;;5079566;28;19924;-82
2023/03/12 09:59:36;;;;;;;;;;;2.40;99.90;;;;;;5074415;28;20092;-82
2023/03/12 10:02:05;;;;;;;;;;;2.40;99.90;;;;;;5065673;28;19924;-83
2023/03/12 10:04:48;;;;;;;;;;;2.50;99.90;;;;;;5075318;28;19943;-82
2023/03/12 10:07:20;;;;;;;;;;;2.50;99.90;;;;;;5062489;28;19998;-83
2023/03/12 10:10:06;;;;;;;;;;;2.50;99.90;;;;;;5063373;28;19928;-83
2023/03/12 10:12:40;;;;;;;;;;;2.60;99.90;;;;;;5096927;28;19928;-82
2023/03/12 10:15:15;;;;;;;;;;;2.70;99.90;;;;;;5095907;28;19967;-83
2023/03/12 10:17:49;;;;;;;;;;;2.70;99.90;;;;;;5094936;28;19936;-83
2023/03/12 10:20:34;;;;;;;;;;;2.80;99.90;;;;;;5062759;28;20011;-83
2023/03/12 10:22:59;;;;;;;;;;;2.80;99.90;;;;;;5093550;28;19924;-82
2023/03/12 10:25:31;;;;;;;;;;;2.90;99.90;;;;;;5088532;28;20010;-83
2023/03/12 10:28:00;;;;;;;;;;;2.90;99.90;;;;;;5058659;28;19955;-83
2023/03/12 10:30:27;;;;;;;;;;;3.00;99.90;;;;;;5080512;28;20015;-83
2023/03/12 10:32:58;;;;;;;;;;;3.00;99.90;;;;;;5061787;28;19930;-84
2023/03/12 10:35:25;;;;;;;;;;;3.10;99.90;;;;;;5067538;28;19968;-84
2023/03/12 10:37:55;;;;;;;;;;;3.10;99.90;;;;;;5064852;28;19924;-83
2023/03/12 10:40:34;;;;;;;;;;;3.30;99.90;;;;;;5058151;28;19932;-84
2023/03/12 10:43:00;;;;;;;;;;;3.40;99.90;;;;;;5097555;28;19988;-84
2023/03/12 10:45:31;;;;;;;;;;;3.40;99.90;;;;;;5062304;28;20007;-84
2023/03/12 10:47:59;;;;;;;;;;;3.50;99.90;;;;;;5060637;28;19935;-84
2023/03/12 10:50:26;;;;;;;;;;;3.50;99.90;;;;;;5089275;28;19932;-84
2023/03/12 10:52:53;;;;;;;;;;;3.60;99.90;;;;;;5075474;28;19928;-83
2023/03/12 10:55:22;;;;;;;;;;;3.60;99.90;;;;;;5066092;28;19932;-84
2023/03/12 10:57:48;;;;;;;;;;;3.70;99.90;;;;;;5084296;28;19924;-83
2023/03/12 11:00:18;;;;;;;;;;;3.80;99.90;;;;;;5067887;28;19932;-84
2023/03/12 11:02:44;;;;;;;;;;;3.80;99.90;;;;;;5065783;28;19932;-84
2023/03/12 11:05:21;;;;;;;;;;;3.80;99.90;;;;;;5060073;28;19960;-84
2023/03/12 11:07:47;;;;;;;;;;;3.90;99.90;;;;;;5070956;28;19932;-84
2023/03/12 11:10:15;;;;;;;;;;;3.90;99.90;;;;;;5088657;28;19958;-84
2023/03/12 11:12:50;;;;;;;;;;;4.00;99.90;;;;;;5089251;28;19932;-84
2023/03/12 11:15:20;;;;;;;;;;;4.00;99.90;;;;;;5067641;28;19932;-85
2023/03/12 11:17:46;;;;;;;;;;;4.00;99.90;;;;;;5060324;28;20346;-84
2023/03/12 11:20:37;;;;;;;;;;;4.10;99.90;;;;;;5081127;28;19943;-84
2023/03/12 11:23:35;;;;;;;;;;;4.20;99.90;;;;;;5060989;28;19924;-84
2023/03/12 11:26:03;;;;;;;;;;;4.20;99.90;;;;;;5010364;28;19925;-83
2023/03/12 11:28:34;;;;;;;;;;;4.30;99.90;;;;;;5057950;28;19963;-84
2023/03/12 11:31:00;;;;;;;;;;;4.30;99.90;;;;;;5058115;28;19947;-83
2023/03/12 11:33:26;;;;;;;;;;;4.40;99.90;;;;;;5059915;28;19928;-83
2023/03/12 11:36:00;;;;;;;;;;;4.50;99.90;;;;;;5060144;28;19931;-82
2023/03/12 11:38:40;;;;;;;;;;;4.60;99.90;;;;;;5064920;28;20421;-83
2023/03/12 11:41:12;;;;;;;;;;;4.70;99.90;;;;;;5063395;28;19936;-82
2023/03/12 11:43:43;;;;;;;;;;;4.70;99.90;;;;;;5058688;28;19925;-83
2023/03/12 11:46:12;;;;;;;;;;;4.90;99.90;;;;;;5065643;28;19928;-81
2023/03/12 11:48:43;;;;;;;;;;;5.00;99.90;;;;;;5061024;28;19939;-83
2023/03/12 11:51:15;;;;;;;;;;;5.00;99.90;;;;;;5069251;28;19943;-83
2023/03/12 11:54:05;;;;;;;;;;;5.10;99.90;;;;;;5061328;28;19971;-82
2023/03/12 11:56:37;;;;;;;;;;;5.20;99.90;;;;;;5089396;28;19946;-83
2023/03/12 11:59:22;;;;;;;;;;;5.20;99.90;;;;;;5065328;28;19979;-84
2023/03/12 12:01:47;;;;;;;;;;;5.30;99.90;;;;;;5086820;28;19932;-83
2023/03/12 12:04:13;;;;;;;;;;;5.40;99.90;;;;;;5090027;28;19928;-83
2023/03/12 12:06:41;;;;;;;;;;;5.40;99.90;;;;;;5043602;28;19928;-83
2023/03/12 12:09:22;;;;;;;;;;;5.50;99.90;;;;;;5059579;28;19958;-82
2023/03/12 12:11:47;;;;;;;;;;;5.60;99.90;;;;;;5059190;28;19935;-82
2023/03/12 12:14:19;;;;;;;;;;;5.70;99.90;;;;;;5058037;28;19967;-83
2023/03/12 12:16:44;;;;;;;;;;;5.70;99.90;;;;;;5059426;28;19959;-82
2023/03/12 12:19:29;;;;;;;;;;;5.80;99.90;;;;;;5053700;28;19928;-84
2023/03/12 12:21:57;;;;;;;;;;;6.00;99.90;;;;;;5057529;28;20017;-83
2023/03/12 12:24:32;;;;;;;;;;;6.00;99.90;;;;;;5062647;28;19935;-83
2023/03/12 12:26:58;;;;;;;;;;;6.10;99.90;;;;;;5063248;28;19932;-85
2023/03/12 12:29:48;;;;;;;;;;;6.10;99.90;;;;;;5090482;28;19931;-83
2023/03/12 12:32:23;;;;;;;;;;;6.20;99.90;;;;;;5059462;28;19983;-84
2023/03/12 12:34:50;;;;;;;;;;;6.30;99.90;;;;;;5066786;28;19936;-83
2023/03/12 12:37:36;;;;;;;;;;;6.40;99.90;;;;;;5058906;28;19928;-83
2023/03/12 12:40:09;;;;;;;;;;;6.50;99.90;;;;;;5061431;28;19959;-83
2023/03/12 12:42:40;;;;;;;;;;;6.70;99.90;;;;;;5065350;28;19959;-83
2023/03/12 12:45:11;;;;;;;;;;;6.80;99.90;;;;;;5077182;28;19925;-83
2023/03/12 12:47:43;;;;;;;;;;;6.90;99.90;;;;;;5085542;28;19928;-83
2023/03/12 12:50:18;;;;;;;;;;;7.10;99.90;;;;;;5067226;28;19928;-83
2023/03/12 12:52:46;;;;;;;;;;;7.20;99.90;;;;;;5084245;28;19939;-83
2023/03/12 12:55:16;;;;;;;;;;;7.30;99.90;;;;;;5067423;28;19939;-84
2023/03/12 12:57:49;;;;;;;;;;;7.40;99.90;;;;;;5070459;28;19932;-84
2023/03/12 13:00:33;;;;;;;;;;;7.40;99.90;;;;;;5068517;28;19982;-83
2023/03/12 13:02:59;;;;;;;;;;;7.50;99.90;;;;;;5084322;28;19928;-83
2023/03/12 13:05:26;;;;;;;;;;;7.50;99.90;;;;;;5071684;28;19946;-83
2023/03/12 13:07:52;;;;;;;;;;;7.60;99.90;;;;;;5083478;28;19928;-83
2023/03/12 13:10:33;;;;;;;;;;;7.60;99.90;;;;;;5065540;28;20021;-83
2023/03/12 13:12:59;;;;;;;;;;;7.60;99.90;;;;;;5091218;28;19931;-84
2023/03/12 13:15:28;;;;;;;;;;;7.60;99.90;;;;;;5065393;28;19924;-82
2023/03/12 13:17:53;;;;;;;;;;;7.70;99.90;;;;;;5080765;28;19950;-83
2023/03/12 13:20:19;;;;;;;;;;;7.70;99.90;;;;;;5092802;28;19924;-82
2023/03/12 13:22:53;;;;;;;;;;;7.80;99.90;;;;;;5062026;28;19934;-82
2023/03/12 13:25:40;;;;;;;;;;;7.90;99.90;;;;;;5086295;28;20262;-82
2023/03/12 13:28:34;;;;;;;;;;;8.00;99.90;;;;;;5061830;28;19929;-82
2023/03/12 13:31:23;;;;;;;;;;;8.00;99.90;;;;;;5064843;28;19924;-82
2023/03/12 13:33:52;;;;;;;;;;;8.00;99.90;;;;;;5055920;28;19932;-82
2023/03/12 13:36:22;;;;;;;;;;;8.00;99.90;;;;;;5090885;28;19928;-82
2023/03/12 13:38:53;;;;;;;;;;;8.10;99.90;;;;;;5063862;28;20000;-81
2023/03/12 13:41:38;;;;;;;;;;;8.10;99.90;;;;;;5059526;28;20615;-82
2023/03/12 13:44:24;;;;;;;;;;;8.10;99.90;;;;;;5091548;28;19947;-82
2023/03/12 13:46:57;;;;;;;;;;;8.10;99.90;;;;;;5053825;28;19931;-83
2023/03/12 13:49:23;;;;;;;;;;;8.10;99.90;;;;;;5075874;28;19970;-83
2023/03/12 13:51:57;;;;;;;;;;;8.20;99.90;;;;;;5068821;28;19932;-83
2023/03/12 13:54:26;;;;;;;;;;;8.30;99.90;;;;;;5083421;28;19971;-83
2023/03/12 13:57:11;;;;;;;;;;;8.30;99.90;;;;;;5063480;28;19963;-83
2023/03/12 13:59:42;;;;;;;;;;;8.40;99.90;;;;;;5059197;28;21887;-82
2023/03/12 14:02:15;;;;;;;;;;;8.30;99.90;;;;;;5066683;28;19924;-83
2023/03/12 14:04:41;;;;;;;;;;;8.40;99.90;;;;;;5068823;28;19925;-83
2023/03/12 14:07:06;;;;;;;;;;;8.40;99.90;;;;;;5081312;28;20416;-83
2023/03/12 14:09:35;;;;;;;;;;;8.40;99.90;;;;;;5086893;28;20027;-83
2023/03/12 14:12:07;;;;;;;;;;;8.40;99.90;;;;;;5061302;28;19931;-83
2023/03/12 14:14:33;;;;;;;;;;;8.40;99.90;;;;;;5061652;28;19959;-83
2023/03/12 14:16:59;;;;;;;;;;;8.40;99.90;;;;;;5063747;28;19932;-83
2023/03/12 14:19:29;;;;;;;;;;;8.50;99.90;;;;;;5074122;28;20017;-83
2023/03/12 14:21:55;;;;;;;;;;;8.40;99.90;;;;;;5065997;28;19932;-83
2023/03/12 14:24:26;;;;;;;;;;;8.50;99.90;;;;;;5065093;28;19931;-83
2023/03/12 14:26:53;;;;;;;;;;;8.50;99.90;;;;;;5080317;28;19935;-83
2023/03/12 14:29:20;;;;;;;;;;;8.50;99.90;;;;;;5066661;28;19925;-83
2023/03/12 14:31:46;;;;;;;;;;;8.60;99.90;;;;;;5060959;28;19924;-84
2023/03/12 14:34:32;;;;;;;;;;;8.60;99.90;;;;;;5066951;28;20402;-82